Time;durP1;ratioP1;P1;durP2;ratioP2;P2;SDS_P1;SDS_P2;PMS_P1;PMS_P2;Temp;Humidity;BMP_temperature;BMP_pressure;BME280_temperature;BME280_humidity;BME280_pressure;Samples;Min_cycle;Max_cycle;Signal;HPM_P1;HPM_P2
2022/11/09 00:01:14;;;;;;;;;;;;;;;19.48;47.80;95703.44;6124517;19;2074;-69
2022/11/09 00:03:18;;;;;;;;;;;;;;;19.49;47.51;95706.94;6126405;19;2097;-74
2022/11/09 00:05:24;;;;;;;;;;;;;;;19.49;47.58;95704.28;6126146;19;2079;-73
2022/11/09 00:07:27;;;;;;;;;;;;;;;19.49;47.47;95706.94;6126097;19;1917;-74
2022/11/09 00:09:31;;;;;;;;;;;;;;;19.48;47.78;95706.13;6102356;19;1834;-72
2022/11/09 00:11:34;;;;;;;;;;;;;;;19.48;47.94;95703.44;6123935;19;1920;-74
2022/11/09 00:13:38;;;;;;;;;;;;;;;19.49;47.77;95704.28;6124984;19;2096;-72
2022/11/09 00:15:41;;;;;;;;;;;;;;;19.48;47.54;95708.78;6123668;19;970;-72
2022/11/09 00:17:45;;;;;;;;;;;;;;;19.48;47.50;95707.97;6125343;19;1933;-73
2022/11/09 00:19:48;;;;;;;;;;;;;;;19.48;47.63;95710.63;6113798;19;1976;-73
2022/11/09 00:21:54;;;;;;;;;;;;;;;19.48;48.08;95705.28;6112093;19;2201;-75
2022/11/09 00:23:58;;;;;;;;;;;;;;;19.48;47.95;95711.44;6124538;19;1938;-73
2022/11/09 00:26:02;;;;;;;;;;;;;;;19.48;47.63;95708.78;6126445;19;1925;-74
2022/11/09 00:28:06;;;;;;;;;;;;;;;19.47;47.75;95707.13;6126319;19;1869;-74
2022/11/09 00:30:09;;;;;;;;;;;;;;;19.47;47.60;95701.81;6126218;19;2141;-74
2022/11/09 00:32:13;;;;;;;;;;;;;;;19.48;47.59;95710.63;6100146;19;1915;-70
2022/11/09 00:34:16;;;;;;;;;;;;;;;19.48;47.68;95707.97;6125315;19;1959;-74
2022/11/09 00:36:20;;;;;;;;;;;;;;;19.47;47.89;95704.47;6125770;19;1693;-73
2022/11/09 00:38:26;;;;;;;;;;;;;;;19.48;48.05;95702.63;6125347;19;1907;-72
2022/11/09 00:40:29;;;;;;;;;;;;;;;19.47;47.97;95701.81;6122706;19;1927;-73
2022/11/09 00:42:33;;;;;;;;;;;;;;;19.46;47.76;95700.13;6116950;19;1930;-68
2022/11/09 00:44:36;;;;;;;;;;;;;;;19.47;48.03;95698.31;6108296;19;2150;-72
2022/11/09 00:46:39;;;;;;;;;;;;;;;19.47;47.89;95703.66;6124708;19;1839;-72
2022/11/09 00:48:43;;;;;;;;;;;;;;;19.47;48.00;95699.16;6124210;19;1881;-72
2022/11/09 00:50:50;;;;;;;;;;;;;;;19.45;48.08;95699.31;6123525;19;2035;-73
2022/11/09 00:52:53;;;;;;;;;;;;;;;19.45;48.10;95699.31;6124311;19;1933;-67
2022/11/09 00:54:59;;;;;;;;;;;;;;;19.47;48.15;95695.66;6101919;19;2088;-74
2022/11/09 00:57:03;;;;;;;;;;;;;;;19.47;47.65;95695.66;6123430;19;2242;-72
2022/11/09 00:59:06;;;;;;;;;;;;;;;19.45;47.99;95691.31;6123663;19;2123;-72
2022/11/09 01:01:10;;;;;;;;;;;;;;;19.45;47.69;95701.97;6123191;19;1757;-73
2022/11/09 01:03:13;;;;;;;;;;;;;;;19.45;47.68;95703.81;6122578;19;1886;-70
2022/11/09 01:05:17;;;;;;;;;;;;;;;19.45;47.66;95706.50;6121709;19;1983;-71
2022/11/09 01:07:20;;;;;;;;;;;;;;;19.45;47.77;95699.31;6107962;19;2048;-72
2022/11/09 01:09:23;;;;;;;;;;;;;;;19.45;47.93;95698.50;6124604;19;1913;-71
2022/11/09 01:11:29;;;;;;;;;;;;;;;19.45;47.57;95695.84;6121299;19;1895;-72
2022/11/09 01:13:32;;;;;;;;;;;;;;;19.45;47.76;95690.50;6123339;19;2105;-73
2022/11/09 01:15:36;;;;;;;;;;;;;;;19.44;47.93;95697.69;6124390;19;1844;-72
2022/11/09 01:17:39;;;;;;;;;;;;;;;19.44;48.10;95692.34;6102287;19;1943;-73
2022/11/09 01:19:42;;;;;;;;;;;;;;;19.45;48.13;95698.50;6122605;19;2122;-72
2022/11/09 01:21:46;;;;;;;;;;;;;;;19.45;47.89;95698.50;6124008;19;1868;-74
2022/11/09 01:23:49;;;;;;;;;;;;;;;19.45;48.20;95698.50;6122980;19;2038;-72
2022/11/09 01:25:59;;;;;;;;;;;;;;;19.44;47.71;95692.34;6121852;19;2132;-74
2022/11/09 01:28:05;;;;;;;;;;;;;;;19.45;48.14;95701.97;6123606;19;1951;-74
2022/11/09 01:30:09;;;;;;;;;;;;;;;19.45;48.16;95698.50;6103168;19;2064;-72
2022/11/09 01:32:13;;;;;;;;;;;;;;;19.45;47.98;95696.66;6121877;19;1943;-73
2022/11/09 01:34:17;;;;;;;;;;;;;;;19.44;47.79;95691.53;6121861;19;1810;-73
2022/11/09 01:36:22;;;;;;;;;;;;;;;19.44;47.88;95696.84;6122565;19;1830;-73
2022/11/09 01:38:25;;;;;;;;;;;;;;;19.42;48.16;95697.03;6122204;19;1721;-72
2022/11/09 01:40:31;;;;;;;;;;;;;;;19.43;48.08;95696.03;6097832;19;2087;-68
2022/11/09 01:42:37;;;;;;;;;;;;;;;19.43;48.27;95685.38;6122063;19;1930;-72
2022/11/09 01:44:44;;;;;;;;;;;;;;;19.43;48.37;95680.06;6121198;19;2154;-71
2022/11/09 01:46:50;;;;;;;;;;;;;;;19.43;48.09;95685.38;6121539;19;1829;-73
2022/11/09 01:48:55;;;;;;;;;;;;;;;19.43;48.26;95684.53;6123922;19;2076;-71
2022/11/09 01:51:00;;;;;;;;;;;;;;;19.43;48.46;95688.03;6120586;19;2197;-69
2022/11/09 01:53:05;;;;;;;;;;;;;;;19.44;48.08;95696.84;6101651;19;1856;-69
2022/11/09 01:55:11;;;;;;;;;;;;;;;19.43;48.19;95690.72;6120835;19;1613;-72
2022/11/09 01:57:17;;;;;;;;;;;;;;;19.44;48.20;95689.69;6121697;19;2059;-72
2022/11/09 01:59:23;;;;;;;;;;;;;;;19.42;48.43;95689.03;6123180;19;1921;-73
2022/11/09 02:01:29;;;;;;;;;;;;;;;19.43;47.97;95690.72;6122679;19;2342;-72
2022/11/09 02:03:33;;;;;;;;;;;;;;;19.43;48.33;95693.38;6098329;19;2036;-72
2022/11/09 02:05:38;;;;;;;;;;;;;;;19.43;48.42;95693.38;6122254;19;2033;-73
2022/11/09 02:07:42;;;;;;;;;;;;;;;19.43;48.42;95688.03;6122342;19;2046;-72
2022/11/09 02:09:47;;;;;;;;;;;;;;;19.43;48.45;95684.53;6121992;19;2097;-72
2022/11/09 02:11:50;;;;;;;;;;;;;;;19.43;48.13;95689.84;6121544;19;2217;-73
2022/11/09 02:13:56;;;;;;;;;;;;;;;19.42;48.15;95683.72;6110124;19;1904;-72
2022/11/09 02:16:00;;;;;;;;;;;;;;;19.42;48.13;95688.22;6109821;19;2112;-73
2022/11/09 02:18:06;;;;;;;;;;;;;;;19.41;48.47;95692.72;6120128;19;1926;-70
2022/11/09 02:20:13;;;;;;;;;;;;;;;19.42;48.14;95688.22;6121559;19;1940;-73
2022/11/09 02:22:17;;;;;;;;;;;;;;;19.42;48.30;95697.03;6122413;19;2079;-73
2022/11/09 02:24:20;;;;;;;;;;;;;;;19.42;48.33;95693.53;6121432;19;1903;-72
2022/11/09 02:26:26;;;;;;;;;;;;;;;19.42;48.35;95693.53;6096869;19;2092;-71
2022/11/09 02:28:30;;;;;;;;;;;;;;;19.41;48.59;95698.06;6122921;19;2183;-71
2022/11/09 02:30:35;;;;;;;;;;;;;;;19.42;48.17;95698.88;6120186;19;2001;-70
2022/11/09 02:32:38;;;;;;;;;;;;;;;19.42;48.42;95701.53;6119680;19;1888;-73
2022/11/09 02:34:41;;;;;;;;;;;;;;;19.42;48.17;95705.03;6121131;19;2083;-71
2022/11/09 02:36:47;;;;;;;;;;;;;;;19.38;48.13;95692.28;6112008;19;1836;-67
2022/11/09 02:38:51;;;;;;;;;;;;;;;19.41;48.49;95703.38;6107146;19;1875;-73
2022/11/09 02:40:54;;;;;;;;;;;;;;;19.41;48.58;95703.38;6120849;19;1864;-72
2022/11/09 02:42:58;;;;;;;;;;;;;;;19.41;48.40;95700.72;6118966;19;1904;-71
2022/11/09 02:45:01;;;;;;;;;;;;;;;19.41;48.27;95703.38;6121824;19;2085;-72
2022/11/09 02:47:05;;;;;;;;;;;;;;;19.41;48.33;95697.22;6119231;19;1057;-71
2022/11/09 02:49:08;;;;;;;;;;;;;;;19.41;48.57;95698.06;6097733;19;2046;-73
2022/11/09 02:51:11;;;;;;;;;;;;;;;19.40;48.54;95704.38;6118970;19;1927;-71
2022/11/09 02:53:17;;;;;;;;;;;;;;;19.40;48.91;95699.06;6120686;19;1968;-65
2022/11/09 02:55:20;;;;;;;;;;;;;;;19.40;48.46;95696.38;6120153;19;1890;-64
2022/11/09 02:57:24;;;;;;;;;;;;;;;19.40;48.42;95704.38;6118955;19;957;-64
2022/11/09 02:59:27;;;;;;;;;;;;;;;19.41;48.90;95702.56;6121155;19;2133;-65
2022/11/09 03:01:30;;;;;;;;;;;;;;;19.39;48.46;95708.06;6090243;19;1963;-64
2022/11/09 03:03:34;;;;;;;;;;;;;;;19.41;48.56;95705.22;6119224;19;1935;-64
2022/11/09 03:05:37;;;;;;;;;;;;;;;19.41;48.62;95711.38;6124484;19;2168;-65
2022/11/09 03:07:41;;;;;;;;;;;;;;;19.42;48.50;95705.03;6126354;19;1964;-64
2022/11/09 03:09:47;;;;;;;;;;;;;;;19.41;48.49;95708.72;6125687;19;2076;-65
2022/11/09 03:11:51;;;;;;;;;;;;;;;19.41;48.57;95699.91;6104479;19;2548;-65
2022/11/09 03:13:54;;;;;;;;;;;;;;;19.40;48.60;95707.03;6126034;19;1881;-65
2022/11/09 03:15:57;;;;;;;;;;;;;;;19.41;48.92;95705.22;6125241;19;1764;-63
2022/11/09 03:18:01;;;;;;;;;;;;;;;19.40;48.80;95704.38;6123735;19;2059;-64
2022/11/09 03:20:04;;;;;;;;;;;;;;;19.41;48.54;95708.72;6127973;19;2075;-66
2022/11/09 03:22:08;;;;;;;;;;;;;;;19.42;48.95;95712.19;6127215;19;2062;-65
2022/11/09 03:24:11;;;;;;;;;;;;;;;19.41;48.54;95711.38;6101908;19;1899;-64
2022/11/09 03:26:17;;;;;;;;;;;;;;;19.40;48.61;95711.56;6125464;19;1945;-65
2022/11/09 03:28:20;;;;;;;;;;;;;;;19.40;48.66;95701.72;6125825;19;1722;-65
2022/11/09 03:30:23;;;;;;;;;;;;;;;19.40;48.73;95707.03;6124379;19;2160;-64
2022/11/09 03:32:27;;;;;;;;;;;;;;;19.40;49.01;95703.56;6123635;19;1857;-66
2022/11/09 03:34:30;;;;;;;;;;;;;;;19.41;48.92;95707.91;6107277;19;2092;-65
2022/11/09 03:36:34;;;;;;;;;;;;;;;19.40;48.50;95704.38;6124465;19;1778;-65
2022/11/09 03:38:37;;;;;;;;;;;;;;;19.41;48.83;95708.72;6125869;19;2911;-64
2022/11/09 03:40:40;;;;;;;;;;;;;;;19.40;48.58;95711.56;6125956;19;1923;-65
2022/11/09 03:42:48;;;;;;;;;;;;;;;19.41;48.59;95714.03;6126993;19;2083;-66
2022/11/09 03:44:51;;;;;;;;;;;;;;;19.45;48.60;95723.31;6125941;19;2062;-65
2022/11/09 03:46:54;;;;;;;;;;;;;;;19.43;48.62;95714.69;6102865;19;1844;-66
2022/11/09 03:48:58;;;;;;;;;;;;;;;19.43;48.63;95717.34;6124862;19;2203;-64
2022/11/09 03:51:01;;;;;;;;;;;;;;;19.38;49.00;95711.75;6125438;19;2041;-65
2022/11/09 03:53:04;;;;;;;;;;;;;;;19.42;48.76;95715.69;6126217;19;1953;-66
2022/11/09 03:55:08;;;;;;;;;;;;;;;19.43;48.56;95714.69;6124420;19;1653;-67
2022/11/09 03:57:11;;;;;;;;;;;;;;;19.45;48.63;95720.63;6103763;19;1614;-64
2022/11/09 03:59:17;;;;;;;;;;;;;;;19.43;49.02;95717.34;6125978;19;1940;-65
2022/11/09 04:01:21;;;;;;;;;;;;;;;19.43;48.83;95720.03;6124533;19;2098;-65
2022/11/09 04:03:24;;;;;;;;;;;;;;;19.45;49.11;95720.63;6124090;19;1932;-65
2022/11/09 04:05:28;;;;;;;;;;;;;;;19.46;48.78;95718.78;6124316;19;1850;-66
2022/11/09 04:07:31;;;;;;;;;;;;;;;19.21;45.99;95719.13;6123243;19;2057;-67
2022/11/09 04:09:34;;;;;;;;;;;;;;;18.78;43.23;95723.47;6102829;19;1900;-67
2022/11/09 04:11:38;;;;;;;;;;;;;;;18.47;42.27;95719.09;6123952;19;1921;-68
2022/11/09 04:13:41;;;;;;;;;;;;;;;18.34;41.91;95721.53;6124534;19;2146;-66
2022/11/09 04:15:47;;;;;;;;;;;;;;;18.25;41.74;95719.97;6123222;19;963;-68
2022/11/09 04:17:57;;;;;;;;;;;;;;;18.22;41.51;95717.66;6123156;19;893;-67
2022/11/09 04:20:00;;;;;;;;;;;;;;;18.18;41.26;95711.03;6112475;19;2057;-69
2022/11/09 04:22:04;;;;;;;;;;;;;;;18.09;41.28;95712.94;6120537;19;1667;-67
2022/11/09 04:24:07;;;;;;;;;;;;;;;18.04;40.99;95713.47;6122854;19;2030;-67
2022/11/09 04:26:10;;;;;;;;;;;;;;;18.01;41.16;95711.19;6124618;19;2117;-67
2022/11/09 04:28:14;;;;;;;;;;;;;;;17.97;40.59;95714.38;6125826;19;1736;-68
2022/11/09 04:30:17;;;;;;;;;;;;;;;17.91;40.84;95723.06;6126135;19;1684;-67
2022/11/09 04:32:23;;;;;;;;;;;;;;;17.87;40.72;95719.94;6100286;19;1841;-67
2022/11/09 04:34:27;;;;;;;;;;;;;;;17.83;40.88;95721.28;6124913;19;1634;-68
2022/11/09 04:36:30;;;;;;;;;;;;;;;17.95;41.47;95711.88;6125268;19;1796;-68
2022/11/09 04:38:35;;;;;;;;;;;;;;;18.10;41.02;95714.59;6124156;19;1719;-68
2022/11/09 04:40:38;;;;;;;;;;;;;;;18.14;41.34;95715.88;6125502;19;1976;-67
2022/11/09 04:42:42;;;;;;;;;;;;;;;18.26;41.73;95713.63;6113864;19;1839;-67
2022/11/09 04:44:45;;;;;;;;;;;;;;;18.33;41.90;95715.38;6111893;19;2351;-66
2022/11/09 04:46:48;;;;;;;;;;;;;;;18.23;41.40;95716.63;6121827;19;1935;-66
2022/11/09 04:48:54;;;;;;;;;;;;;;;17.93;42.29;95708.59;6124461;19;1926;-66
2022/11/09 04:51:00;;;;;;;;;;;;;;;18.13;41.67;95719.56;6124452;19;2026;-67
2022/11/09 04:53:11;;;;;;;;;;;;;;;18.15;41.90;95716.69;6120988;19;2072;-66
2022/11/09 04:55:14;;;;;;;;;;;;;;;18.08;41.92;95721.91;6100881;19;2105;-66
2022/11/09 04:57:17;;;;;;;;;;;;;;;18.18;42.17;95722.53;6122639;19;2026;-66
2022/11/09 04:59:21;;;;;;;;;;;;;;;18.27;41.99;95725.94;6121783;19;1028;-66
2022/11/09 05:01:24;;;;;;;;;;;;;;;18.19;41.99;95721.50;6122459;19;1814;-68
2022/11/09 05:03:27;;;;;;;;;;;;;;;18.24;41.64;95726.25;6123519;19;2051;-66
2022/11/09 05:05:34;;;;;;;;;;;;;;;18.18;41.75;95727.84;6112597;19;1904;-68
2022/11/09 05:07:38;;;;;;;;;;;;;;;18.14;41.81;95731.03;6111413;19;1917;-66
2022/11/09 05:09:41;;;;;;;;;;;;;;;18.14;41.92;95731.03;6122647;19;1824;-66
2022/11/09 05:11:44;;;;;;;;;;;;;;;18.13;41.52;95732.84;6123733;19;1791;-66
2022/11/09 05:13:48;;;;;;;;;;;;;;;17.86;42.72;95735.03;6122031;19;1893;-67
2022/11/09 05:15:51;;;;;;;;;;;;;;;18.04;41.81;95742.72;6122084;19;1946;-66
2022/11/09 05:17:55;;;;;;;;;;;;;;;17.98;41.64;95743.44;6100434;19;2010;-67
2022/11/09 05:19:58;;;;;;;;;;;;;;;17.95;41.99;95743.78;6124010;19;1712;-66
2022/11/09 05:24:20;;;;;;;;;;;;;;;17.84;41.97;95746.84;6118404;19;1576;-67
2022/11/09 05:26:23;;;;;;;;;;;;;;;17.85;41.79;95744.03;6116375;19;1496;-67
2022/11/09 05:28:27;;;;;;;;;;;;;;;17.66;42.38;95750.56;6107309;19;1533;-67
2022/11/09 05:30:30;;;;;;;;;;;;;;;17.51;42.33;95740.88;6107329;19;1299;-65
2022/11/09 05:32:33;;;;;;;;;;;;;;;17.45;42.79;95757.53;6118326;19;1285;-67
2022/11/09 05:34:36;;;;;;;;;;;;;;;17.36;42.60;95754.09;6118604;19;1842;-65
2022/11/09 05:36:40;;;;;;;;;;;;;;;17.31;42.41;95761.75;6120789;19;950;-65
2022/11/09 05:38:46;;;;;;;;;;;;;;;17.28;42.89;95751.47;6119529;19;1040;-66
2022/11/09 05:40:49;;;;;;;;;;;;;;;17.30;42.72;95762.72;6098726;19;1451;-65
2022/11/09 05:42:54;;;;;;;;;;;;;;;17.27;42.83;95760.41;6120314;19;1057;-67
2022/11/09 05:44:58;;;;;;;;;;;;;;;17.19;42.42;95751.50;6119967;19;1025;-65
2022/11/09 05:47:01;;;;;;;;;;;;;;;17.19;42.92;95763.94;6119755;19;1148;-65
2022/11/09 05:49:04;;;;;;;;;;;;;;;17.20;43.00;95765.59;6120386;19;967;-65
2022/11/09 05:51:10;;;;;;;;;;;;;;;17.15;42.76;95757.31;6110712;19;1137;-68
2022/11/09 05:53:14;;;;;;;;;;;;;;;17.11;42.95;95766.63;6107641;19;1853;-67
2022/11/09 05:55:20;;;;;;;;;;;;;;;17.09;42.79;95761.47;6119954;19;958;-66
2022/11/09 05:57:23;;;;;;;;;;;;;;;17.22;42.64;95770.75;6119612;19;1131;-66
2022/11/09 05:59:26;;;;;;;;;;;;;;;17.40;42.87;95772.16;6118109;19;1586;-67
2022/11/09 06:01:30;;;;;;;;;;;;;;;17.76;42.25;95771.66;6119991;19;1018;-65
2022/11/09 06:03:33;;;;;;;;;;;;;;;17.96;42.35;95769.38;6097278;19;1549;-67
2022/11/09 06:05:37;;;;;;;;;;;;;;;18.12;42.93;95767.59;6118143;19;1840;-67
2022/11/09 06:07:40;;;;;;;;;;;;;;;18.20;42.95;95776.34;6118682;19;1028;-66
2022/11/09 06:09:44;;;;;;;;;;;;;;;18.28;43.12;95775.47;6120141;19;1036;-67
2022/11/09 06:11:51;;;;;;;;;;;;;;;18.33;43.55;95770.44;6119561;19;1034;-65
2022/11/09 06:13:54;;;;;;;;;;;;;;;18.39;43.42;95782.19;6108088;19;1841;-66
2022/11/09 06:15:58;;;;;;;;;;;;;;;18.43;43.60;95778.16;6107509;19;1394;-65
2022/11/09 06:18:02;;;;;;;;;;;;;;;18.46;43.86;95777.81;6119483;19;1060;-61
2022/11/09 06:20:05;;;;;;;;;;;;;;;18.51;43.73;95791.41;6119763;19;970;-65
2022/11/09 06:22:09;;;;;;;;;;;;;;;18.53;43.80;95787.56;6118933;19;947;-67
2022/11/09 06:24:12;;;;;;;;;;;;;;;18.57;43.77;95790.69;6119586;19;1486;-66
2022/11/09 06:26:15;;;;;;;;;;;;;;;18.59;43.78;95787.84;6096794;19;1247;-67
2022/11/09 06:28:22;;;;;;;;;;;;;;;18.62;43.38;95792.81;6117215;19;1425;-67
2022/11/09 06:30:25;;;;;;;;;;;;;;;18.64;43.41;95791.63;6118843;19;1044;-67
2022/11/09 06:32:28;;;;;;;;;;;;;;;18.64;43.48;95783.63;6117870;19;1298;-67
2022/11/09 06:34:32;;;;;;;;;;;;;;;18.66;43.54;95789.63;6118099;19;1829;-67
2022/11/09 06:36:35;;;;;;;;;;;;;;;18.67;43.45;95787.81;6106985;19;1458;-68
2022/11/09 06:38:38;;;;;;;;;;;;;;;18.67;43.62;95791.28;6105591;19;1209;-67
2022/11/09 06:40:41;;;;;;;;;;;;;;;18.67;43.61;95791.28;6117411;19;1128;-67
2022/11/09 06:42:45;;;;;;;;;;;;;;;18.68;43.31;95781.47;6118887;19;1031;-69
2022/11/09 06:44:51;;;;;;;;;;;;;;;18.71;43.42;95789.09;6118663;19;1032;-65
2022/11/09 06:46:54;;;;;;;;;;;;;;;18.71;44.02;95791.75;6119571;19;1441;-66
2022/11/09 06:48:57;;;;;;;;;;;;;;;18.72;43.86;95785.41;6096910;19;1300;-66
2022/11/09 06:51:01;;;;;;;;;;;;;;;18.73;44.18;95787.91;6118828;19;1030;-66
2022/11/09 06:53:06;;;;;;;;;;;;;;;18.75;44.40;95798.34;6118191;19;1280;-65
2022/11/09 06:55:10;;;;;;;;;;;;;;;18.76;44.02;95784.06;6117020;19;1866;-65
2022/11/09 06:57:13;;;;;;;;;;;;;;;18.77;44.25;95788.38;6118958;19;958;-67
2022/11/09 06:59:17;;;;;;;;;;;;;;;18.79;44.27;95788.19;6108213;19;1288;-67
2022/11/09 07:01:24;;;;;;;;;;;;;;;18.81;44.30;95786.16;6107169;19;1216;-66
2022/11/09 07:03:28;;;;;;;;;;;;;;;18.81;43.92;95787.00;6118691;19;1030;-66
2022/11/09 07:05:31;;;;;;;;;;;;;;;18.82;44.34;95790.50;6118972;19;1016;-67
2022/11/09 07:07:35;;;;;;;;;;;;;;;18.83;44.35;95790.28;6120581;19;1103;-67
2022/11/09 07:09:38;;;;;;;;;;;;;;;18.82;44.27;95791.31;6121022;19;1635;-68
2022/11/09 07:11:41;;;;;;;;;;;;;;;18.82;44.34;95788.66;6096032;19;1299;-67
2022/11/09 07:13:45;;;;;;;;;;;;;;;18.83;44.58;95784.97;6117224;19;1837;-67
2022/11/09 07:15:54;;;;;;;;;;;;;;;18.84;44.68;95786.63;6120945;19;1723;-67
2022/11/09 07:18:01;;;;;;;;;;;;;;;18.85;44.28;95788.28;6119314;19;2306;-68
2022/11/09 07:20:05;;;;;;;;;;;;;;;18.86;44.77;95783.78;6119668;19;1459;-67
2022/11/09 07:22:08;;;;;;;;;;;;;;;18.85;44.36;95780.28;6106160;19;1050;-67
2022/11/09 07:24:12;;;;;;;;;;;;;;;18.86;44.75;95781.13;6105876;19;1338;-67
2022/11/09 07:26:15;;;;;;;;;;;;;;;18.86;44.48;95784.59;6117523;19;1143;-67
2022/11/09 07:28:18;;;;;;;;;;;;;;;18.87;44.46;95775.63;6117140;19;1124;-67
2022/11/09 07:30:22;;;;;;;;;;;;;;;18.87;44.54;95775.63;6119761;19;1320;-66
2022/11/09 07:32:25;;;;;;;;;;;;;;;18.88;44.72;95779.94;6115561;19;1284;-67
2022/11/09 07:34:31;;;;;;;;;;;;;;;18.89;44.52;95778.09;6094513;19;1861;-67
2022/11/09 07:36:35;;;;;;;;;;;;;;;18.89;44.95;95776.25;6120173;19;2500;-66
2022/11/09 07:38:38;;;;;;;;;;;;;;;18.88;44.92;95777.25;6118718;19;1533;-67
2022/11/09 07:40:42;;;;;;;;;;;;;;;18.89;45.06;95768.25;6117167;19;1058;-67
2022/11/09 07:42:46;;;;;;;;;;;;;;;18.89;44.79;95773.59;6121242;19;1352;-67
2022/11/09 07:44:49;;;;;;;;;;;;;;;18.90;44.96;95772.59;6106709;19;1400;-67
2022/11/09 07:46:52;;;;;;;;;;;;;;;18.90;45.18;95775.25;6107511;19;1477;-67
2022/11/09 07:48:55;;;;;;;;;;;;;;;18.91;44.88;95773.41;6117192;19;1637;-68
2022/11/09 07:51:02;;;;;;;;;;;;;;;18.93;44.98;95774.06;6118963;19;963;-68
2022/11/09 07:53:06;;;;;;;;;;;;;;;18.92;44.96;95783.03;6123561;19;1044;-68
2022/11/09 07:55:09;;;;;;;;;;;;;;;18.92;45.32;95778.56;6121250;19;1863;-69
2022/11/09 07:57:13;;;;;;;;;;;;;;;18.93;45.37;95776.72;6100854;19;1455;-67
2022/11/09 07:59:16;;;;;;;;;;;;;;;18.94;45.08;95783.69;6119865;19;1715;-67
2022/11/09 08:01:20;;;;;;;;;;;;;;;18.93;45.42;95780.22;6123262;19;1029;-68
2022/11/09 08:03:24;;;;;;;;;;;;;;;18.93;45.10;95780.22;6123066;19;957;-68
2022/11/09 08:05:28;;;;;;;;;;;;;;;18.94;45.15;95781.84;6122960;19;1350;-68
2022/11/09 08:07:34;;;;;;;;;;;;;;;18.94;45.00;95781.84;6111570;19;1337;-68
2022/11/09 08:09:38;;;;;;;;;;;;;;;18.95;45.01;95788.84;6111249;19;1290;-68
2022/11/09 08:11:41;;;;;;;;;;;;;;;18.96;45.09;95781.69;6122805;19;1136;-69
2022/11/09 08:13:44;;;;;;;;;;;;;;;18.96;45.37;95785.19;6121844;19;1864;-68
2022/11/09 08:15:48;;;;;;;;;;;;;;;18.96;45.24;95782.50;6122779;19;1058;-67
2022/11/09 08:17:51;;;;;;;;;;;;;;;18.97;45.55;95788.66;6122632;19;1117;-68
2022/11/09 08:19:54;;;;;;;;;;;;;;;18.98;45.23;95779.69;6099485;19;1313;-68
2022/11/09 08:21:58;;;;;;;;;;;;;;;18.99;44.82;95784.00;6121397;19;1058;-68
2022/11/09 08:24:04;;;;;;;;;;;;;;;18.98;44.94;95783.16;6122635;19;1061;-68
2022/11/09 08:26:08;;;;;;;;;;;;;;;19.00;44.84;95780.31;6122786;19;1013;-69
2022/11/09 08:28:11;;;;;;;;;;;;;;;19.00;44.40;95780.31;6121595;19;1123;-69
2022/11/09 08:30:16;;;;;;;;;;;;;;;18.99;44.73;95778.66;6110922;19;1299;-69
2022/11/09 08:32:19;;;;;;;;;;;;;;;18.99;44.46;95784.00;6109036;19;1340;-69
2022/11/09 08:34:23;;;;;;;;;;;;;;;18.98;44.28;95777.84;6121414;19;1851;-70
2022/11/09 08:36:28;;;;;;;;;;;;;;;18.99;45.00;95784.00;6121782;19;1036;-69
2022/11/09 08:38:32;;;;;;;;;;;;;;;18.98;46.34;95788.50;6122052;19;1089;-68
2022/11/09 08:40:38;;;;;;;;;;;;;;;18.98;46.73;95777.84;6122213;19;1286;-68
2022/11/09 08:42:41;;;;;;;;;;;;;;;18.99;46.87;95779.47;6098967;19;1571;-68
2022/11/09 08:44:45;;;;;;;;;;;;;;;19.00;46.74;95778.47;6121693;19;1132;-71
2022/11/09 08:46:48;;;;;;;;;;;;;;;19.03;47.51;95784.44;6121820;19;1017;-72
2022/11/09 08:48:51;;;;;;;;;;;;;;;19.03;47.34;95779.13;6121379;19;991;-72
2022/11/09 08:50:55;;;;;;;;;;;;;;;19.05;47.04;95779.75;6119849;19;1117;-70
2022/11/09 08:52:58;;;;;;;;;;;;;;;19.06;47.82;95784.06;6110255;19;1119;-70
2022/11/09 08:55:02;;;;;;;;;;;;;;;19.07;47.47;95783.91;6109780;19;1833;-70
2022/11/09 08:57:08;;;;;;;;;;;;;;;19.07;47.60;95775.91;6119731;19;1530;-71
2022/11/09 08:59:11;;;;;;;;;;;;;;;19.07;47.53;95770.59;6121519;19;1057;-70
2022/11/09 09:01:15;;;;;;;;;;;;;;;19.08;47.45;95782.06;6120877;19;1330;-70
2022/11/09 09:03:18;;;;;;;;;;;;;;;19.09;47.37;95773.03;6118833;19;1042;-70
2022/11/09 09:05:21;;;;;;;;;;;;;;;19.08;47.47;95771.41;6097981;19;1508;-70
2022/11/09 09:07:25;;;;;;;;;;;;;;;19.09;47.70;95779.19;6121429;19;1052;-70
2022/11/09 09:09:28;;;;;;;;;;;;;;;19.09;47.90;95776.53;6120894;19;1056;-69
2022/11/09 09:11:31;;;;;;;;;;;;;;;19.09;47.37;95781.03;6120655;19;1140;-71
2022/11/09 09:13:37;;;;;;;;;;;;;;;19.10;47.35;95769.41;6120136;19;1057;-69
2022/11/09 09:15:41;;;;;;;;;;;;;;;19.10;47.47;95774.72;6108883;19;1817;-72
2022/11/09 09:17:44;;;;;;;;;;;;;;;19.08;48.50;95766.91;6109671;19;1274;-69
2022/11/09 09:19:48;;;;;;;;;;;;;;;19.10;48.29;95764.88;6118121;19;1447;-67
2022/11/09 09:21:51;;;;;;;;;;;;;;;19.10;49.21;95769.41;6120464;19;1173;-69
2022/11/09 09:23:54;;;;;;;;;;;;;;;19.10;49.76;95772.06;6120544;19;1065;-69
2022/11/09 09:25:59;;;;;;;;;;;;;;;19.10;49.37;95764.06;6121041;19;1017;-69
2022/11/09 09:28:02;;;;;;;;;;;;;;;19.10;49.11;95767.56;6097280;19;1169;-70
2022/11/09 09:30:09;;;;;;;;;;;;;;;19.10;49.34;95770.22;6121196;19;1292;-69
2022/11/09 09:32:13;;;;;;;;;;;;;;;19.10;49.36;95758.75;6119149;19;1369;-70
2022/11/09 09:34:16;;;;;;;;;;;;;;;19.11;49.50;95766.53;6119930;19;965;-70
2022/11/09 09:36:20;;;;;;;;;;;;;;;19.11;49.77;95755.06;6120253;19;950;-69
2022/11/09 09:38:23;;;;;;;;;;;;;;;19.11;49.44;95761.19;6109471;19;1212;-70
2022/11/09 09:40:30;;;;;;;;;;;;;;;19.12;49.68;95762.03;6108974;19;1744;-70
2022/11/09 09:42:37;;;;;;;;;;;;;;;19.12;49.52;95756.69;6119203;19;1037;-70
2022/11/09 09:44:42;;;;;;;;;;;;;;;19.14;49.32;95758.16;6120448;19;1053;-66
2022/11/09 09:46:51;;;;;;;;;;;;;;;19.15;49.40;95751.00;6120542;19;966;-69
2022/11/09 09:48:56;;;;;;;;;;;;;;;19.17;49.12;95751.66;6119624;19;1136;-68
2022/11/09 09:51:02;;;;;;;;;;;;;;;19.17;49.00;95743.66;6094828;19;1529;-68
2022/11/09 09:53:12;;;;;;;;;;;;;;;19.15;49.09;95741.19;6120263;19;1032;-69
2022/11/09 09:55:21;;;;;;;;;;;;;;;19.15;48.92;95741.19;6119444;19;1846;-68
2022/11/09 09:57:26;;;;;;;;;;;;;;;19.15;49.16;95729.69;6119382;19;1032;-69
2022/11/09 09:59:35;;;;;;;;;;;;;;;19.15;48.87;95730.53;6120303;19;1049;-69
2022/11/09 10:01:39;;;;;;;;;;;;;;;19.16;48.87;95728.69;6097384;19;1284;-68
2022/11/09 10:03:45;;;;;;;;;;;;;;;19.16;49.11;95736.69;6118625;19;1065;-68
2022/11/09 10:05:54;;;;;;;;;;;;;;;19.15;48.76;95727.03;6119230;19;1137;-69
2022/11/09 10:08:05;;;;;;;;;;;;;;;19.16;49.13;95720.69;6119399;19;1049;-68
2022/11/09 10:10:17;;;;;;;;;;;;;;;19.15;48.79;95724.34;6119632;19;1058;-69
2022/11/09 10:12:25;;;;;;;;;;;;;;;19.16;49.08;95726.84;6107278;19;1286;-68
2022/11/09 10:14:46;;;;;;;;;;;;;;;19.16;48.60;95720.69;6107039;19;1362;-69
2022/11/09 10:16:54;;;;;;;;;;;;;;;19.15;48.58;95721.69;6119586;19;1053;-69
2022/11/09 10:19:22;;;;;;;;;;;;;;;19.17;48.79;95717.00;6118923;19;1028;-68
2022/11/09 10:21:32;;;;;;;;;;;;;;;19.16;48.67;95715.38;6119034;19;1123;-68
2022/11/09 10:23:42;;;;;;;;;;;;;;;19.16;48.78;95718.84;6108250;19;1105;-69
2022/11/09 10:25:47;;;;;;;;;;;;;;;19.16;48.65;95710.03;6107616;19;1141;-70
2022/11/09 10:27:53;;;;;;;;;;;;;;;19.17;48.92;95706.34;6119063;19;1017;-69
2022/11/09 10:29:57;;;;;;;;;;;;;;;19.17;48.46;95707.19;6118979;19;1135;-70
2022/11/09 10:32:03;;;;;;;;;;;;;;;19.18;48.32;95702.69;6117521;19;1344;-70
2022/11/09 10:34:14;;;;;;;;;;;;;;;19.18;48.45;95708.84;6118024;19;1077;-70
2022/11/09 10:36:23;;;;;;;;;;;;;;;19.17;48.66;95709.03;6094520;19;1861;-68
2022/11/09 10:38:29;;;;;;;;;;;;;;;19.17;48.79;95707.19;6119108;19;1000;-67
2022/11/09 10:40:35;;;;;;;;;;;;;;;19.17;48.53;95707.19;6119092;19;1031;-66
2022/11/09 10:42:38;;;;;;;;;;;;;;;19.18;48.28;95692.03;6118126;19;954;-68
2022/11/09 10:44:41;;;;;;;;;;;;;;;19.18;48.79;95700.03;6118480;19;1132;-68
2022/11/09 10:47:00;;;;;;;;;;;;;;;19.18;48.61;95694.72;6106400;19;1549;-69
2022/11/09 10:49:19;;;;;;;;;;;;;;;19.19;48.25;95688.34;6116880;19;1070;-68
2022/11/09 10:51:41;;;;;;;;;;;;;;;19.18;48.52;95689.38;6118870;19;1639;-68
2022/11/09 10:53:44;;;;;;;;;;;;;;;19.19;48.45;95678.53;6118120;19;1069;-69
2022/11/09 10:55:55;;;;;;;;;;;;;;;19.19;48.21;95683.03;6117083;19;1850;-68
2022/11/09 10:58:01;;;;;;;;;;;;;;;19.19;48.19;95683.03;6106722;19;1174;-68
2022/11/09 11:00:05;;;;;;;;;;;;;;;19.18;48.18;95674.22;6106787;19;1237;-67